sensor_id;sensor_type;location;lat;lon;timestamp;temperature;humidity
27016;DHT22;14557;0.000;0.000;2024-02-28T00:00:36;21.40;54.20
27016;DHT22;14557;0.000;0.000;2024-02-28T00:03:02;21.40;54.10
27016;DHT22;14557;0.000;0.000;2024-02-28T00:05:27;21.30;54.10
27016;DHT22;14557;0.000;0.000;2024-02-28T00:07:53;21.40;54.10
27016;DHT22;14557;0.000;0.000;2024-02-28T00:10:18;21.30;54.10
27016;DHT22;14557;0.000;0.000;2024-02-28T00:12:44;21.30;54.10
27016;DHT22;14557;0.000;0.000;2024-02-28T00:15:10;21.30;54.30
27016;DHT22;14557;0.000;0.000;2024-02-28T00:17:39;21.30;54.30
27016;DHT22;14557;0.000;0.000;2024-02-28T00:20:08;21.30;54.20
27016;DHT22;14557;0.000;0.000;2024-02-28T00:22:37;21.20;54.20
27016;DHT22;14557;0.000;0.000;2024-02-28T00:25:03;21.20;54.20
27016;DHT22;14557;0.000;0.000;2024-02-28T00:27:30;21.20;54.30
27016;DHT22;14557;0.000;0.000;2024-02-28T00:29:56;21.20;54.30
27016;DHT22;14557;0.000;0.000;2024-02-28T00:32:21;21.20;54.30
27016;DHT22;14557;0.000;0.000;2024-02-28T00:34:47;21.20;54.40
27016;DHT22;14557;0.000;0.000;2024-02-28T00:37:13;21.10;54.30
27016;DHT22;14557;0.000;0.000;2024-02-28T00:39:38;21.10;54.30
27016;DHT22;14557;0.000;0.000;2024-02-28T00:42:04;21.10;54.40
27016;DHT22;14557;0.000;0.000;2024-02-28T00:44:29;21.10;54.30
27016;DHT22;14557;0.000;0.000;2024-02-28T00:46:55;21.10;54.30
27016;DHT22;14557;0.000;0.000;2024-02-28T00:49:21;21.10;54.30
27016;DHT22;14557;0.000;0.000;2024-02-28T00:51:47;21.10;54.40
27016;DHT22;14557;0.000;0.000;2024-02-28T00:54:13;21.10;54.40
27016;DHT22;14557;0.000;0.000;2024-02-28T00:56:38;21.00;54.40
27016;DHT22;14557;0.000;0.000;2024-02-28T00:59:04;21.00;54.40
27016;DHT22;14557;0.000;0.000;2024-02-28T01:01:31;21.00;54.40
27016;DHT22;14557;0.000;0.000;2024-02-28T01:03:57;21.00;54.40
27016;DHT22;14557;0.000;0.000;2024-02-28T01:06:23;21.00;54.50
27016;DHT22;14557;0.000;0.000;2024-02-28T01:08:48;21.10;54.60
27016;DHT22;14557;0.000;0.000;2024-02-28T01:11:15;21.00;54.60
27016;DHT22;14557;0.000;0.000;2024-02-28T01:13:41;21.00;54.60
27016;DHT22;14557;0.000;0.000;2024-02-28T01:16:06;21.00;54.60
27016;DHT22;14557;0.000;0.000;2024-02-28T01:18:32;21.00;54.50
27016;DHT22;14557;0.000;0.000;2024-02-28T01:20:58;21.00;54.50
27016;DHT22;14557;0.000;0.000;2024-02-28T01:23:23;21.00;54.50
27016;DHT22;14557;0.000;0.000;2024-02-28T01:25:49;21.00;55.10
27016;DHT22;14557;0.000;0.000;2024-02-28T01:28:14;21.00;54.40
27016;DHT22;14557;0.000;0.000;2024-02-28T01:30:40;21.00;54.40
27016;DHT22;14557;0.000;0.000;2024-02-28T01:33:06;21.00;54.40
27016;DHT22;14557;0.000;0.000;2024-02-28T01:35:31;21.00;54.40
27016;DHT22;14557;0.000;0.000;2024-02-28T01:37:57;20.90;54.30
27016;DHT22;14557;0.000;0.000;2024-02-28T01:40:23;20.90;54.30
27016;DHT22;14557;0.000;0.000;2024-02-28T01:42:48;20.90;54.30
27016;DHT22;14557;0.000;0.000;2024-02-28T01:45:14;20.90;54.30
27016;DHT22;14557;0.000;0.000;2024-02-28T01:47:40;20.90;54.30
27016;DHT22;14557;0.000;0.000;2024-02-28T01:50:07;20.90;54.30
27016;DHT22;14557;0.000;0.000;2024-02-28T01:52:32;20.90;54.30
27016;DHT22;14557;0.000;0.000;2024-02-28T01:54:58;20.90;54.30
27016;DHT22;14557;0.000;0.000;2024-02-28T01:57:24;20.90;54.20
27016;DHT22;14557;0.000;0.000;2024-02-28T01:59:50;20.90;54.30
27016;DHT22;14557;0.000;0.000;2024-02-28T02:02:15;20.80;54.20
27016;DHT22;14557;0.000;0.000;2024-02-28T02:04:41;20.80;54.20
27016;DHT22;14557;0.000;0.000;2024-02-28T02:07:06;20.80;54.30
27016;DHT22;14557;0.000;0.000;2024-02-28T02:09:34;20.80;54.30
27016;DHT22;14557;0.000;0.000;2024-02-28T02:12:00;20.80;54.30
27016;DHT22;14557;0.000;0.000;2024-02-28T02:14:25;20.80;54.30
27016;DHT22;14557;0.000;0.000;2024-02-28T02:16:51;20.70;54.30
27016;DHT22;14557;0.000;0.000;2024-02-28T02:19:16;20.80;54.50
27016;DHT22;14557;0.000;0.000;2024-02-28T02:21:48;20.80;55.00
27016;DHT22;14557;0.000;0.000;2024-02-28T02:24:16;20.80;55.40
27016;DHT22;14557;0.000;0.000;2024-02-28T02:26:41;20.70;55.50
27016;DHT22;14557;0.000;0.000;2024-02-28T02:29:10;20.70;54.90
27016;DHT22;14557;0.000;0.000;2024-02-28T02:31:35;20.70;54.70
27016;DHT22;14557;0.000;0.000;2024-02-28T02:34:01;20.70;54.70
27016;DHT22;14557;0.000;0.000;2024-02-28T02:36:26;20.70;54.70
27016;DHT22;14557;0.000;0.000;2024-02-28T02:38:52;20.70;54.70
27016;DHT22;14557;0.000;0.000;2024-02-28T02:41:18;20.70;54.70
27016;DHT22;14557;0.000;0.000;2024-02-28T02:43:43;20.60;54.80
27016;DHT22;14557;0.000;0.000;2024-02-28T02:46:09;20.70;54.90
27016;DHT22;14557;0.000;0.000;2024-02-28T02:48:34;20.70;54.80
27016;DHT22;14557;0.000;0.000;2024-02-28T02:51:03;20.60;54.80
27016;DHT22;14557;0.000;0.000;2024-02-28T02:53:29;20.60;54.80
27016;DHT22;14557;0.000;0.000;2024-02-28T02:55:55;20.60;54.70
27016;DHT22;14557;0.000;0.000;2024-02-28T02:58:20;20.60;54.70
27016;DHT22;14557;0.000;0.000;2024-02-28T03:00:46;20.60;54.70
27016;DHT22;14557;0.000;0.000;2024-02-28T03:03:11;20.60;54.70
27016;DHT22;14557;0.000;0.000;2024-02-28T03:05:37;20.60;54.70
27016;DHT22;14557;0.000;0.000;2024-02-28T03:08:03;20.60;54.70
27016;DHT22;14557;0.000;0.000;2024-02-28T03:10:28;20.60;54.60
27016;DHT22;14557;0.000;0.000;2024-02-28T03:12:54;20.60;54.70
27016;DHT22;14557;0.000;0.000;2024-02-28T03:15:20;20.50;55.30
27016;DHT22;14557;0.000;0.000;2024-02-28T03:17:45;20.70;54.90
27016;DHT22;14557;0.000;0.000;2024-02-28T03:20:11;20.60;54.80
27016;DHT22;14557;0.000;0.000;2024-02-28T03:22:38;20.50;54.80
27016;DHT22;14557;0.000;0.000;2024-02-28T03:25:04;20.50;55.50
27016;DHT22;14557;0.000;0.000;2024-02-28T03:27:30;20.50;54.80
27016;DHT22;14557;0.000;0.000;2024-02-28T03:29:56;20.50;54.80
27016;DHT22;14557;0.000;0.000;2024-02-28T03:32:21;20.50;54.90
27016;DHT22;14557;0.000;0.000;2024-02-28T03:34:47;20.50;54.90
27016;DHT22;14557;0.000;0.000;2024-02-28T03:37:14;20.50;54.90
27016;DHT22;14557;0.000;0.000;2024-02-28T03:39:40;20.50;54.90
27016;DHT22;14557;0.000;0.000;2024-02-28T03:42:05;20.50;54.90
27016;DHT22;14557;0.000;0.000;2024-02-28T03:44:31;20.50;54.90
27016;DHT22;14557;0.000;0.000;2024-02-28T03:46:57;20.40;54.90
27016;DHT22;14557;0.000;0.000;2024-02-28T03:49:22;20.40;54.90
27016;DHT22;14557;0.000;0.000;2024-02-28T03:51:48;20.40;54.90
27016;DHT22;14557;0.000;0.000;2024-02-28T03:54:13;20.40;54.90
27016;DHT22;14557;0.000;0.000;2024-02-28T03:56:39;20.40;54.80
27016;DHT22;14557;0.000;0.000;2024-02-28T03:59:05;20.40;54.80
27016;DHT22;14557;0.000;0.000;2024-02-28T04:01:30;20.40;54.80
27016;DHT22;14557;0.000;0.000;2024-02-28T04:03:56;20.40;54.80
27016;DHT22;14557;0.000;0.000;2024-02-28T04:06:21;20.40;54.70
27016;DHT22;14557;0.000;0.000;2024-02-28T04:08:47;20.30;54.70
27016;DHT22;14557;0.000;0.000;2024-02-28T04:11:13;20.40;54.80
27016;DHT22;14557;0.000;0.000;2024-02-28T04:13:39;20.30;54.70
27016;DHT22;14557;0.000;0.000;2024-02-28T04:16:05;20.30;54.70
27016;DHT22;14557;0.000;0.000;2024-02-28T04:18:31;20.30;54.70
27016;DHT22;14557;0.000;0.000;2024-02-28T04:20:56;20.30;54.70
27016;DHT22;14557;0.000;0.000;2024-02-28T04:23:22;20.30;54.60
27016;DHT22;14557;0.000;0.000;2024-02-28T04:25:48;20.30;54.60
27016;DHT22;14557;0.000;0.000;2024-02-28T04:28:13;20.30;54.60
27016;DHT22;14557;0.000;0.000;2024-02-28T04:30:39;20.30;54.50
27016;DHT22;14557;0.000;0.000;2024-02-28T04:33:04;20.30;54.50
27016;DHT22;14557;0.000;0.000;2024-02-28T04:35:30;20.20;54.40
27016;DHT22;14557;0.000;0.000;2024-02-28T04:37:55;20.20;54.40
27016;DHT22;14557;0.000;0.000;2024-02-28T04:40:21;20.30;54.40
27016;DHT22;14557;0.000;0.000;2024-02-28T04:42:47;20.20;54.40
27016;DHT22;14557;0.000;0.000;2024-02-28T04:45:12;20.20;54.30
27016;DHT22;14557;0.000;0.000;2024-02-28T04:47:38;20.20;54.30
27016;DHT22;14557;0.000;0.000;2024-02-28T04:50:04;20.20;54.30
27016;DHT22;14557;0.000;0.000;2024-02-28T04:52:31;20.20;54.20
27016;DHT22;14557;0.000;0.000;2024-02-28T04:54:57;20.20;54.30
27016;DHT22;14557;0.000;0.000;2024-02-28T04:57:22;20.20;54.30
27016;DHT22;14557;0.000;0.000;2024-02-28T04:59:48;20.20;54.30
27016;DHT22;14557;0.000;0.000;2024-02-28T05:02:14;20.20;54.20
27016;DHT22;14557;0.000;0.000;2024-02-28T05:04:40;20.10;54.00
27016;DHT22;14557;0.000;0.000;2024-02-28T05:07:05;20.10;54.10
27016;DHT22;14557;0.000;0.000;2024-02-28T05:09:35;20.10;54.20
27016;DHT22;14557;0.000;0.000;2024-02-28T05:12:01;20.10;54.00
27016;DHT22;14557;0.000;0.000;2024-02-28T05:14:27;20.10;54.00
27016;DHT22;14557;0.000;0.000;2024-02-28T05:16:52;20.10;54.00
27016;DHT22;14557;0.000;0.000;2024-02-28T05:19:18;20.10;54.00
27016;DHT22;14557;0.000;0.000;2024-02-28T05:21:44;20.10;54.00
27016;DHT22;14557;0.000;0.000;2024-02-28T05:24:10;20.10;54.00
27016;DHT22;14557;0.000;0.000;2024-02-28T05:26:35;20.10;53.90
27016;DHT22;14557;0.000;0.000;2024-02-28T05:29:01;20.10;54.00
27016;DHT22;14557;0.000;0.000;2024-02-28T05:31:27;20.00;53.80
27016;DHT22;14557;0.000;0.000;2024-02-28T05:33:54;20.00;53.80
27016;DHT22;14557;0.000;0.000;2024-02-28T05:36:21;20.00;53.90
27016;DHT22;14557;0.000;0.000;2024-02-28T05:38:47;20.00;53.90
27016;DHT22;14557;0.000;0.000;2024-02-28T05:41:12;20.00;53.80
27016;DHT22;14557;0.000;0.000;2024-02-28T05:43:40;20.00;53.80
27016;DHT22;14557;0.000;0.000;2024-02-28T05:46:06;20.00;53.90
27016;DHT22;14557;0.000;0.000;2024-02-28T05:48:32;20.00;53.80
27016;DHT22;14557;0.000;0.000;2024-02-28T05:50:57;20.00;53.90
27016;DHT22;14557;0.000;0.000;2024-02-28T05:53:23;20.00;53.90
27016;DHT22;14557;0.000;0.000;2024-02-28T05:55:54;19.90;53.90
27016;DHT22;14557;0.000;0.000;2024-02-28T05:58:22;19.90;53.90
27016;DHT22;14557;0.000;0.000;2024-02-28T06:00:48;19.90;53.90
27016;DHT22;14557;0.000;0.000;2024-02-28T06:03:14;19.90;53.90
27016;DHT22;14557;0.000;0.000;2024-02-28T06:05:40;19.90;53.90
27016;DHT22;14557;0.000;0.000;2024-02-28T06:08:06;19.90;53.90
27016;DHT22;14557;0.000;0.000;2024-02-28T06:10:31;19.90;54.00
27016;DHT22;14557;0.000;0.000;2024-02-28T06:12:57;19.90;53.90
27016;DHT22;14557;0.000;0.000;2024-02-28T06:15:22;19.80;54.00
27016;DHT22;14557;0.000;0.000;2024-02-28T06:17:48;19.80;54.00
27016;DHT22;14557;0.000;0.000;2024-02-28T06:20:14;19.80;54.00
27016;DHT22;14557;0.000;0.000;2024-02-28T06:22:40;19.80;54.00
27016;DHT22;14557;0.000;0.000;2024-02-28T06:25:06;19.80;54.00
27016;DHT22;14557;0.000;0.000;2024-02-28T06:27:36;19.80;54.00
27016;DHT22;14557;0.000;0.000;2024-02-28T06:30:02;19.80;54.00
27016;DHT22;14557;0.000;0.000;2024-02-28T06:32:28;19.80;54.00
27016;DHT22;14557;0.000;0.000;2024-02-28T06:34:54;19.80;54.10
27016;DHT22;14557;0.000;0.000;2024-02-28T06:37:20;19.80;54.00
27016;DHT22;14557;0.000;0.000;2024-02-28T06:39:45;19.80;54.10
27016;DHT22;14557;0.000;0.000;2024-02-28T06:42:11;19.80;54.10
27016;DHT22;14557;0.000;0.000;2024-02-28T06:44:36;19.70;54.10
27016;DHT22;14557;0.000;0.000;2024-02-28T06:47:02;19.70;54.10
27016;DHT22;14557;0.000;0.000;2024-02-28T06:49:28;19.80;54.00
27016;DHT22;14557;0.000;0.000;2024-02-28T06:51:53;19.70;54.00
27016;DHT22;14557;0.000;0.000;2024-02-28T06:54:20;19.70;54.00
27016;DHT22;14557;0.000;0.000;2024-02-28T06:56:45;19.70;54.00
27016;DHT22;14557;0.000;0.000;2024-02-28T06:59:11;19.70;53.90
27016;DHT22;14557;0.000;0.000;2024-02-28T07:01:37;19.70;53.90
27016;DHT22;14557;0.000;0.000;2024-02-28T07:04:02;19.70;53.90
27016;DHT22;14557;0.000;0.000;2024-02-28T07:06:28;19.70;53.90
27016;DHT22;14557;0.000;0.000;2024-02-28T07:08:53;19.60;53.90
27016;DHT22;14557;0.000;0.000;2024-02-28T07:11:19;19.70;53.90
27016;DHT22;14557;0.000;0.000;2024-02-28T07:13:45;19.60;53.80
27016;DHT22;14557;0.000;0.000;2024-02-28T07:16:10;19.60;53.80
27016;DHT22;14557;0.000;0.000;2024-02-28T07:18:36;19.50;53.80
27016;DHT22;14557;0.000;0.000;2024-02-28T07:21:01;19.60;53.90
27016;DHT22;14557;0.000;0.000;2024-02-28T07:23:27;19.60;53.90
27016;DHT22;14557;0.000;0.000;2024-02-28T07:25:52;19.60;53.90
27016;DHT22;14557;0.000;0.000;2024-02-28T07:28:18;19.60;53.80
27016;DHT22;14557;0.000;0.000;2024-02-28T07:30:44;19.60;53.80
27016;DHT22;14557;0.000;0.000;2024-02-28T07:33:11;19.60;53.80
27016;DHT22;14557;0.000;0.000;2024-02-28T07:35:45;19.60;53.80
27016;DHT22;14557;0.000;0.000;2024-02-28T07:38:11;19.60;53.90
27016;DHT22;14557;0.000;0.000;2024-02-28T07:40:37;19.60;53.80
27016;DHT22;14557;0.000;0.000;2024-02-28T07:43:02;19.60;53.80
27016;DHT22;14557;0.000;0.000;2024-02-28T07:45:28;19.60;53.80
27016;DHT22;14557;0.000;0.000;2024-02-28T07:47:53;19.50;53.80
27016;DHT22;14557;0.000;0.000;2024-02-28T07:50:19;19.50;53.70
27016;DHT22;14557;0.000;0.000;2024-02-28T07:52:45;19.50;53.80
27016;DHT22;14557;0.000;0.000;2024-02-28T07:55:10;19.50;53.70
27016;DHT22;14557;0.000;0.000;2024-02-28T07:57:36;19.50;53.70
27016;DHT22;14557;0.000;0.000;2024-02-28T08:00:02;19.50;54.20
27016;DHT22;14557;0.000;0.000;2024-02-28T08:02:28;19.60;55.80
27016;DHT22;14557;0.000;0.000;2024-02-28T08:04:53;19.50;54.60
27016;DHT22;14557;0.000;0.000;2024-02-28T08:07:19;19.50;54.20
27016;DHT22;14557;0.000;0.000;2024-02-28T08:09:45;19.50;54.10
27016;DHT22;14557;0.000;0.000;2024-02-28T08:12:10;19.50;54.00
27016;DHT22;14557;0.000;0.000;2024-02-28T08:14:36;19.50;54.00
27016;DHT22;14557;0.000;0.000;2024-02-28T08:17:01;19.50;54.10
27016;DHT22;14557;0.000;0.000;2024-02-28T08:19:27;19.50;54.00
27016;DHT22;14557;0.000;0.000;2024-02-28T08:21:53;19.50;54.20
27016;DHT22;14557;0.000;0.000;2024-02-28T08:24:19;19.50;55.00
27016;DHT22;14557;0.000;0.000;2024-02-28T08:26:45;19.60;57.00
27016;DHT22;14557;0.000;0.000;2024-02-28T08:29:11;19.70;58.40
27016;DHT22;14557;0.000;0.000;2024-02-28T08:31:40;19.90;58.30
27016;DHT22;14557;0.000;0.000;2024-02-28T08:34:07;19.90;57.20
27016;DHT22;14557;0.000;0.000;2024-02-28T08:36:32;19.80;56.70
27016;DHT22;14557;0.000;0.000;2024-02-28T08:38:58;19.80;56.00
27016;DHT22;14557;0.000;0.000;2024-02-28T08:41:23;19.80;55.80
27016;DHT22;14557;0.000;0.000;2024-02-28T08:43:49;19.80;55.80
27016;DHT22;14557;0.000;0.000;2024-02-28T08:46:15;19.80;56.00
27016;DHT22;14557;0.000;0.000;2024-02-28T08:48:43;19.80;56.10
27016;DHT22;14557;0.000;0.000;2024-02-28T08:51:09;19.80;56.00
27016;DHT22;14557;0.000;0.000;2024-02-28T08:53:34;19.80;56.20
27016;DHT22;14557;0.000;0.000;2024-02-28T08:56:00;19.80;56.00
27016;DHT22;14557;0.000;0.000;2024-02-28T08:58:26;19.80;56.00
27016;DHT22;14557;0.000;0.000;2024-02-28T09:00:51;19.80;56.00
27016;DHT22;14557;0.000;0.000;2024-02-28T09:03:17;19.80;56.20
27016;DHT22;14557;0.000;0.000;2024-02-28T09:05:44;19.70;56.00
27016;DHT22;14557;0.000;0.000;2024-02-28T09:08:10;19.70;55.90
27016;DHT22;14557;0.000;0.000;2024-02-28T09:10:35;19.70;55.90
27016;DHT22;14557;0.000;0.000;2024-02-28T09:13:01;19.80;56.10
27016;DHT22;14557;0.000;0.000;2024-02-28T09:15:26;19.80;56.50
27016;DHT22;14557;0.000;0.000;2024-02-28T09:17:52;19.80;56.20
27016;DHT22;14557;0.000;0.000;2024-02-28T09:20:18;19.80;55.90
27016;DHT22;14557;0.000;0.000;2024-02-28T09:22:44;19.80;56.40
27016;DHT22;14557;0.000;0.000;2024-02-28T09:25:09;19.70;56.70
27016;DHT22;14557;0.000;0.000;2024-02-28T09:27:36;19.80;58.50
27016;DHT22;14557;0.000;0.000;2024-02-28T09:30:02;19.80;58.30
27016;DHT22;14557;0.000;0.000;2024-02-28T09:32:28;19.80;57.50
27016;DHT22;14557;0.000;0.000;2024-02-28T09:34:53;20.10;57.40
27016;DHT22;14557;0.000;0.000;2024-02-28T09:37:19;19.90;57.30
27016;DHT22;14557;0.000;0.000;2024-02-28T09:39:49;19.90;57.30
27016;DHT22;14557;0.000;0.000;2024-02-28T09:42:15;19.90;57.00
27016;DHT22;14557;0.000;0.000;2024-02-28T09:44:41;19.90;56.80
27016;DHT22;14557;0.000;0.000;2024-02-28T09:47:08;19.90;56.80
27016;DHT22;14557;0.000;0.000;2024-02-28T09:49:33;19.90;56.90
27016;DHT22;14557;0.000;0.000;2024-02-28T09:51:59;19.90;56.80
27016;DHT22;14557;0.000;0.000;2024-02-28T09:54:26;19.90;56.70
27016;DHT22;14557;0.000;0.000;2024-02-28T09:56:51;19.90;56.70
27016;DHT22;14557;0.000;0.000;2024-02-28T09:59:20;19.90;56.70
27016;DHT22;14557;0.000;0.000;2024-02-28T10:01:58;19.90;57.00
27016;DHT22;14557;0.000;0.000;2024-02-28T10:04:26;19.90;60.60
27016;DHT22;14557;0.000;0.000;2024-02-28T10:06:51;20.00;61.60
27016;DHT22;14557;0.000;0.000;2024-02-28T10:09:17;20.00;60.00
27016;DHT22;14557;0.000;0.000;2024-02-28T10:11:42;20.00;59.20
27016;DHT22;14557;0.000;0.000;2024-02-28T10:14:20;20.00;58.80
27016;DHT22;14557;0.000;0.000;2024-02-28T10:16:46;20.00;58.30
27016;DHT22;14557;0.000;0.000;2024-02-28T10:19:11;20.00;58.00
27016;DHT22;14557;0.000;0.000;2024-02-28T10:21:38;20.00;58.10
27016;DHT22;14557;0.000;0.000;2024-02-28T10:24:04;20.00;57.90
27016;DHT22;14557;0.000;0.000;2024-02-28T10:26:30;20.00;57.50
27016;DHT22;14557;0.000;0.000;2024-02-28T10:28:58;20.00;57.80
27016;DHT22;14557;0.000;0.000;2024-02-28T10:31:23;20.00;58.70
27016;DHT22;14557;0.000;0.000;2024-02-28T10:33:49;20.00;58.40
27016;DHT22;14557;0.000;0.000;2024-02-28T10:36:14;20.00;58.40
27016;DHT22;14557;0.000;0.000;2024-02-28T10:38:40;20.00;59.50
27016;DHT22;14557;0.000;0.000;2024-02-28T10:41:06;20.10;59.40
27016;DHT22;14557;0.000;0.000;2024-02-28T10:43:31;20.10;59.20
27016;DHT22;14557;0.000;0.000;2024-02-28T10:46:00;20.10;58.40
27016;DHT22;14557;0.000;0.000;2024-02-28T10:48:26;20.10;57.70
27016;DHT22;14557;0.000;0.000;2024-02-28T10:50:52;20.10;57.80
27016;DHT22;14557;0.000;0.000;2024-02-28T10:53:21;20.20;57.90
27016;DHT22;14557;0.000;0.000;2024-02-28T10:55:47;20.10;57.50
27016;DHT22;14557;0.000;0.000;2024-02-28T10:58:13;20.10;57.00
27016;DHT22;14557;0.000;0.000;2024-02-28T11:00:40;20.10;56.80
27016;DHT22;14557;0.000;0.000;2024-02-28T11:03:13;20.10;56.90
27016;DHT22;14557;0.000;0.000;2024-02-28T11:05:41;20.10;57.00
27016;DHT22;14557;0.000;0.000;2024-02-28T11:08:10;20.10;56.70
27016;DHT22;14557;0.000;0.000;2024-02-28T11:10:42;20.10;57.10
27016;DHT22;14557;0.000;0.000;2024-02-28T11:13:10;20.10;56.90
27016;DHT22;14557;0.000;0.000;2024-02-28T11:15:36;20.10;56.90
27016;DHT22;14557;0.000;0.000;2024-02-28T11:18:08;20.10;56.70
27016;DHT22;14557;0.000;0.000;2024-02-28T11:20:38;20.10;56.90
27016;DHT22;14557;0.000;0.000;2024-02-28T11:23:05;20.10;56.70
27016;DHT22;14557;0.000;0.000;2024-02-28T11:25:31;20.10;56.70
27016;DHT22;14557;0.000;0.000;2024-02-28T11:27:57;20.10;56.50
27016;DHT22;14557;0.000;0.000;2024-02-28T11:30:22;20.10;56.40
27016;DHT22;14557;0.000;0.000;2024-02-28T11:32:54;20.00;56.40
27016;DHT22;14557;0.000;0.000;2024-02-28T11:35:20;20.10;56.90
27016;DHT22;14557;0.000;0.000;2024-02-28T11:37:45;20.00;56.20
27016;DHT22;14557;0.000;0.000;2024-02-28T11:40:12;20.00;56.20
27016;DHT22;14557;0.000;0.000;2024-02-28T11:42:38;20.00;56.20
27016;DHT22;14557;0.000;0.000;2024-02-28T11:45:04;20.00;56.10
27016;DHT22;14557;0.000;0.000;2024-02-28T11:47:34;20.00;56.00
27016;DHT22;14557;0.000;0.000;2024-02-28T11:50:03;20.00;56.00
27016;DHT22;14557;0.000;0.000;2024-02-28T11:52:32;20.00;56.10
27016;DHT22;14557;0.000;0.000;2024-02-28T11:54:58;20.00;56.10
27016;DHT22;14557;0.000;0.000;2024-02-28T11:57:24;20.00;56.10
27016;DHT22;14557;0.000;0.000;2024-02-28T11:59:51;20.00;55.90
27016;DHT22;14557;0.000;0.000;2024-02-28T12:02:18;20.00;55.90
27016;DHT22;14557;0.000;0.000;2024-02-28T12:04:44;20.00;55.90
27016;DHT22;14557;0.000;0.000;2024-02-28T12:07:10;20.00;55.80
27016;DHT22;14557;0.000;0.000;2024-02-28T12:09:36;20.00;55.80
27016;DHT22;14557;0.000;0.000;2024-02-28T12:12:02;20.00;55.80
27016;DHT22;14557;0.000;0.000;2024-02-28T12:14:31;20.00;55.70
27016;DHT22;14557;0.000;0.000;2024-02-28T12:16:58;20.00;55.70
27016;DHT22;14557;0.000;0.000;2024-02-28T12:19:24;20.00;55.70
27016;DHT22;14557;0.000;0.000;2024-02-28T12:21:49;20.00;55.70
27016;DHT22;14557;0.000;0.000;2024-02-28T12:24:15;20.00;55.70
27016;DHT22;14557;0.000;0.000;2024-02-28T12:26:41;20.00;55.70
27016;DHT22;14557;0.000;0.000;2024-02-28T12:29:07;20.00;56.40
27016;DHT22;14557;0.000;0.000;2024-02-28T12:31:32;20.10;56.80
27016;DHT22;14557;0.000;0.000;2024-02-28T12:33:58;20.00;57.40
27016;DHT22;14557;0.000;0.000;2024-02-28T12:36:24;20.20;59.20
27016;DHT22;14557;0.000;0.000;2024-02-28T12:38:50;20.20;59.10
27016;DHT22;14557;0.000;0.000;2024-02-28T12:41:16;20.20;59.50
27016;DHT22;14557;0.000;0.000;2024-02-28T12:43:42;20.20;60.00
27016;DHT22;14557;0.000;0.000;2024-02-28T12:46:08;20.20;61.30
27016;DHT22;14557;0.000;0.000;2024-02-28T12:48:37;20.30;60.60
27016;DHT22;14557;0.000;0.000;2024-02-28T12:51:03;20.30;62.00
27016;DHT22;14557;0.000;0.000;2024-02-28T12:53:30;20.30;62.30
27016;DHT22;14557;0.000;0.000;2024-02-28T12:55:56;20.30;60.50
27016;DHT22;14557;0.000;0.000;2024-02-28T12:58:22;20.30;59.90
27016;DHT22;14557;0.000;0.000;2024-02-28T13:00:49;20.30;59.20
27016;DHT22;14557;0.000;0.000;2024-02-28T13:03:15;20.30;60.10
27016;DHT22;14557;0.000;0.000;2024-02-28T13:05:41;20.30;60.40
27016;DHT22;14557;0.000;0.000;2024-02-28T13:08:07;20.40;65.10
27016;DHT22;14557;0.000;0.000;2024-02-28T13:10:32;20.40;63.60
27016;DHT22;14557;0.000;0.000;2024-02-28T13:13:02;20.50;61.50
27016;DHT22;14557;0.000;0.000;2024-02-28T13:15:28;20.50;60.40
27016;DHT22;14557;0.000;0.000;2024-02-28T13:17:54;20.50;60.40
27016;DHT22;14557;0.000;0.000;2024-02-28T13:20:19;20.50;59.30
27016;DHT22;14557;0.000;0.000;2024-02-28T13:22:45;20.50;59.00
27016;DHT22;14557;0.000;0.000;2024-02-28T13:25:11;20.60;58.80
27016;DHT22;14557;0.000;0.000;2024-02-28T13:27:39;20.50;58.30
27016;DHT22;14557;0.000;0.000;2024-02-28T13:30:05;20.50;58.10
27016;DHT22;14557;0.000;0.000;2024-02-28T13:32:31;20.50;58.40
27016;DHT22;14557;0.000;0.000;2024-02-28T13:34:57;20.50;58.10
27016;DHT22;14557;0.000;0.000;2024-02-28T13:37:23;20.50;58.10
27016;DHT22;14557;0.000;0.000;2024-02-28T13:39:48;20.60;57.70
27016;DHT22;14557;0.000;0.000;2024-02-28T13:42:17;20.50;57.50
27016;DHT22;14557;0.000;0.000;2024-02-28T13:44:45;20.60;57.30
27016;DHT22;14557;0.000;0.000;2024-02-28T13:47:12;20.50;57.20
27016;DHT22;14557;0.000;0.000;2024-02-28T13:49:39;20.50;57.00
27016;DHT22;14557;0.000;0.000;2024-02-28T13:52:04;20.50;56.80
27016;DHT22;14557;0.000;0.000;2024-02-28T13:54:30;20.50;56.70
27016;DHT22;14557;0.000;0.000;2024-02-28T13:56:56;20.50;56.40
27016;DHT22;14557;0.000;0.000;2024-02-28T13:59:22;20.50;56.20
27016;DHT22;14557;0.000;0.000;2024-02-28T14:01:49;20.60;56.10
27016;DHT22;14557;0.000;0.000;2024-02-28T14:04:14;20.50;56.00
27016;DHT22;14557;0.000;0.000;2024-02-28T14:06:40;20.50;55.90
27016;DHT22;14557;0.000;0.000;2024-02-28T14:09:06;20.60;56.40
27016;DHT22;14557;0.000;0.000;2024-02-28T14:11:31;20.60;56.50
27016;DHT22;14557;0.000;0.000;2024-02-28T14:13:57;20.60;56.20
27016;DHT22;14557;0.000;0.000;2024-02-28T14:16:24;20.60;56.80
27016;DHT22;14557;0.000;0.000;2024-02-28T14:18:49;20.60;56.30
27016;DHT22;14557;0.000;0.000;2024-02-28T14:21:15;20.60;56.20
27016;DHT22;14557;0.000;0.000;2024-02-28T14:23:40;20.60;56.70
27016;DHT22;14557;0.000;0.000;2024-02-28T14:26:06;20.60;56.50
27016;DHT22;14557;0.000;0.000;2024-02-28T14:28:32;20.60;56.40
27016;DHT22;14557;0.000;0.000;2024-02-28T14:30:57;20.60;56.40
27016;DHT22;14557;0.000;0.000;2024-02-28T14:33:23;20.60;56.70
27016;DHT22;14557;0.000;0.000;2024-02-28T14:35:49;20.60;56.80
27016;DHT22;14557;0.000;0.000;2024-02-28T14:38:14;20.60;56.70
27016;DHT22;14557;0.000;0.000;2024-02-28T14:40:40;20.60;56.70
27016;DHT22;14557;0.000;0.000;2024-02-28T14:43:07;20.70;56.80
27016;DHT22;14557;0.000;0.000;2024-02-28T14:45:32;20.70;56.70
27016;DHT22;14557;0.000;0.000;2024-02-28T14:47:58;20.70;56.60
27016;DHT22;14557;0.000;0.000;2024-02-28T14:50:24;20.60;56.50
27016;DHT22;14557;0.000;0.000;2024-02-28T14:52:49;20.70;56.50
27016;DHT22;14557;0.000;0.000;2024-02-28T14:55:15;20.70;56.50
27016;DHT22;14557;0.000;0.000;2024-02-28T14:57:40;20.70;56.40
27016;DHT22;14557;0.000;0.000;2024-02-28T15:00:07;20.70;56.40
27016;DHT22;14557;0.000;0.000;2024-02-28T15:02:39;20.70;56.30
27016;DHT22;14557;0.000;0.000;2024-02-28T15:05:05;20.80;56.30
27016;DHT22;14557;0.000;0.000;2024-02-28T15:07:34;20.70;56.30
27016;DHT22;14557;0.000;0.000;2024-02-28T15:10:00;20.80;56.20
27016;DHT22;14557;0.000;0.000;2024-02-28T15:12:29;20.80;56.20
27016;DHT22;14557;0.000;0.000;2024-02-28T15:15:01;20.80;56.20
27016;DHT22;14557;0.000;0.000;2024-02-28T15:17:28;20.80;56.10
27016;DHT22;14557;0.000;0.000;2024-02-28T15:19:53;20.80;56.00
27016;DHT22;14557;0.000;0.000;2024-02-28T15:22:19;20.90;56.10
27016;DHT22;14557;0.000;0.000;2024-02-28T15:24:45;20.80;55.90
27016;DHT22;14557;0.000;0.000;2024-02-28T15:27:12;20.90;56.00
27016;DHT22;14557;0.000;0.000;2024-02-28T15:29:37;20.90;56.10
27016;DHT22;14557;0.000;0.000;2024-02-28T15:32:03;20.90;56.00
27016;DHT22;14557;0.000;0.000;2024-02-28T15:34:28;20.90;56.00
27016;DHT22;14557;0.000;0.000;2024-02-28T15:36:54;20.90;56.00